Bitola, Macedonia
Current Conditions -  °F | °C
As of 7:30 PM on Wednesday 22 Oct 2014 (Local Time) from LWOH Reporting Station
Broken Clouds Broken Clouds  
Wind Chill: 16°   Ceiling: 4000
Heat Index: 16°   Visibility: 6mi
Dew Point: 12°   Wind: 14mph
Humidity: 77%   Direction: 160°SSE
Pressure: 29.56"   Gusts: NA
Location:  41.04°N, 21.34°E
Report Text: LWOH 221730Z 16012KT 9999 FEW020 SCT030 BKN040 16/12 Q1001
Loading
Personal Weather Stations






























Interactive Weather Map
Tropical Storm Tracking
New forecast layout! Learn more

10-Day Weather Forecast

Advertisements
Track Severe Weather on mobile